Time;durP1;ratioP1;P1;durP2;ratioP2;P2;SDS_P1;SDS_P2;PMS_P1;PMS_P2;Temp;Humidity;BMP_temperature;BMP_pressure;BME280_temperature;BME280_humidity;BME280_pressure;Samples;Min_cycle;Max_cycle;Signal;HPM_P1;HPM_P2
2022/05/17 00:02:18;;;;;;;0.50;0.50;;;;;;;;;;5117045;27;20215;-62
2022/05/17 00:05:06;;;;;;;0.70;0.70;;;;;;;;;;5114465;27;20306;-59
2022/05/17 00:07:54;;;;;;;0.60;0.60;;;;;;;;;;5117499;27;20269;-62
2022/05/17 00:10:42;;;;;;;0.40;0.40;;;;;;;;;;5109895;27;20211;-62
2022/05/17 00:13:29;;;;;;;0.70;0.53;;;;;;;;;;5113673;27;20687;-62
2022/05/17 00:16:16;;;;;;;0.93;0.57;;;;;;;;;;5112353;27;20948;-61
2022/05/17 00:19:03;;;;;;;0.60;0.60;;;;;;;;;;5116538;27;20307;-62
2022/05/17 00:21:51;;;;;;;0.80;0.80;;;;;;;;;;5109115;27;20209;-62
2022/05/17 00:24:39;;;;;;;0.53;0.53;;;;;;;;;;5113461;27;20257;-63
2022/05/17 00:27:26;;;;;;;0.60;0.60;;;;;;;;;;5106285;27;20212;-62
2022/05/17 00:30:14;;;;;;;0.80;0.80;;;;;;;;;;5116810;27;20314;-61
2022/05/17 00:33:01;;;;;;;0.97;0.70;;;;;;;;;;5114772;27;20286;-61
2022/05/17 00:35:48;;;;;;;0.50;0.50;;;;;;;;;;5113881;27;20334;-62
2022/05/17 00:38:35;;;;;;;0.70;0.70;;;;;;;;;;5113043;27;20675;-62
2022/05/17 00:41:23;;;;;;;0.53;0.53;;;;;;;;;;5110453;27;20693;-62
2022/05/17 00:47:19;;;;;;;0.60;0.60;;;;;;;;;;5113826;27;20205;-62
2022/05/17 00:50:11;;;;;;;0.60;0.60;;;;;;;;;;5117271;27;20312;-62
2022/05/17 00:53:00;;;;;;;0.67;0.67;;;;;;;;;;5108150;27;20237;-61
2022/05/17 00:55:54;;;;;;;0.60;0.60;;;;;;;;;;5113167;27;20333;-62
2022/05/17 00:58:45;;;;;;;0.60;0.60;;;;;;;;;;5111497;27;20672;-62
2022/05/17 01:01:33;;;;;;;0.50;0.50;;;;;;;;;;5113984;27;20692;-61
2022/05/17 01:04:23;;;;;;;0.60;0.60;;;;;;;;;;5115864;27;20239;-62
2022/05/17 01:07:13;;;;;;;0.57;0.57;;;;;;;;;;5120796;27;20255;-62
2022/05/17 01:10:00;;;;;;;0.70;0.70;;;;;;;;;;5118415;27;20317;-61
2022/05/17 01:14:57;;;;;;;0.73;0.73;;;;;;;;;;5108655;27;20249;-62
2022/05/17 01:15:54;;;;;;;0.70;0.70;;;;;;;;;;5112137;27;20563;-61
2022/05/17 01:18:43;;;;;;;0.70;0.70;;;;;;;;;;5110630;27;20207;-61
2022/05/17 01:21:32;;;;;;;0.93;0.70;;;;;;;;;;5116331;27;20335;-62
2022/05/17 01:24:19;;;;;;;0.50;0.50;;;;;;;;;;5120374;27;20347;-61
2022/05/17 01:27:12;;;;;;;0.70;0.70;;;;;;;;;;5112497;27;20208;-61
2022/05/17 01:29:59;;;;;;;0.60;0.60;;;;;;;;;;5115521;27;20738;-61
2022/05/17 01:32:46;;;;;;;0.63;0.63;;;;;;;;;;5110796;27;20715;-62
2022/05/17 01:35:33;;;;;;;0.70;0.70;;;;;;;;;;5106935;27;20205;-61
2022/05/17 01:38:21;;;;;;;0.70;0.70;;;;;;;;;;5109740;27;20212;-67
2022/05/17 01:41:09;;;;;;;0.60;0.60;;;;;;;;;;5120096;27;20299;-61
2022/05/17 01:43:56;;;;;;;0.73;0.73;;;;;;;;;;5118745;27;20346;-62
2022/05/17 01:46:43;;;;;;;0.70;0.70;;;;;;;;;;5111765;27;20266;-61
2022/05/17 01:49:30;;;;;;;0.77;0.77;;;;;;;;;;5115345;27;20239;-61
2022/05/17 01:52:17;;;;;;;0.60;0.60;;;;;;;;;;5113193;27;20304;-61
2022/05/17 01:55:06;;;;;;;0.70;0.70;;;;;;;;;;5113857;27;20704;-62
2022/05/17 01:57:53;;;;;;;0.60;0.60;;;;;;;;;;5111627;27;20202;-62
2022/05/17 02:00:40;;;;;;;0.63;0.63;;;;;;;;;;5105664;27;20286;-62
2022/05/17 02:03:27;;;;;;;0.60;0.60;;;;;;;;;;5108651;27;20291;-62
2022/05/17 02:06:13;;;;;;;0.60;0.60;;;;;;;;;;5109432;27;20288;-61
2022/05/17 02:09:00;;;;;;;0.63;0.63;;;;;;;;;;5115152;27;20333;-62
2022/05/17 02:11:49;;;;;;;0.70;0.70;;;;;;;;;;5108752;27;20321;-61
2022/05/17 02:14:36;;;;;;;0.50;0.50;;;;;;;;;;5124082;27;20274;-61
2022/05/17 02:17:23;;;;;;;0.63;0.63;;;;;;;;;;5117523;27;20354;-60
2022/05/17 02:20:11;;;;;;;0.70;0.70;;;;;;;;;;5111656;27;20226;-62
2022/05/17 02:23:00;;;;;;;0.60;0.60;;;;;;;;;;5107628;27;20274;-61
2022/05/17 02:25:47;;;;;;;0.50;0.50;;;;;;;;;;5112812;27;20293;-63
2022/05/17 02:28:36;;;;;;;0.70;0.70;;;;;;;;;;5119619;27;20243;-60
2022/05/17 02:31:23;;;;;;;0.47;0.47;;;;;;;;;;5113216;27;20486;-62
2022/05/17 02:34:10;;;;;;;0.70;0.70;;;;;;;;;;5109305;27;20739;-62
2022/05/17 02:36:57;;;;;;;0.77;0.77;;;;;;;;;;5114459;27;20294;-61
2022/05/17 02:39:46;;;;;;;0.63;0.63;;;;;;;;;;5115679;27;20281;-61
2022/05/17 02:42:33;;;;;;;0.60;0.60;;;;;;;;;;5113424;27;20206;-61
2022/05/17 02:45:21;;;;;;;0.80;0.80;;;;;;;;;;5110278;27;20655;-62
2022/05/17 02:48:09;;;;;;;0.63;0.63;;;;;;;;;;5109162;28;20233;-61
2022/05/17 02:50:56;;;;;;;0.73;0.73;;;;;;;;;;5115603;28;20258;-62
2022/05/17 02:53:43;;;;;;;1.03;0.60;;;;;;;;;;5113694;28;20226;-61
2022/05/17 02:56:30;;;;;;;0.70;0.70;;;;;;;;;;5113638;28;20294;-61
2022/05/17 02:59:18;;;;;;;0.60;0.60;;;;;;;;;;5122271;28;20289;-61
2022/05/17 03:02:06;;;;;;;0.70;0.70;;;;;;;;;;5111964;28;20201;-61
2022/05/17 03:04:53;;;;;;;0.53;0.53;;;;;;;;;;5114593;28;20294;-62
2022/05/17 03:07:41;;;;;;;0.63;0.63;;;;;;;;;;5111745;28;20296;-62
2022/05/17 03:10:28;;;;;;;0.70;0.70;;;;;;;;;;5109625;28;20226;-62
2022/05/17 03:13:16;;;;;;;0.70;0.70;;;;;;;;;;5116345;28;20193;-61
2022/05/17 03:16:03;;;;;;;0.70;0.70;;;;;;;;;;5114178;28;20701;-61
2022/05/17 03:18:51;;;;;;;0.60;0.60;;;;;;;;;;5117678;28;20205;-61
2022/05/17 03:21:38;;;;;;;0.40;0.40;;;;;;;;;;5111909;28;20691;-61
2022/05/17 03:24:25;;;;;;;0.60;0.60;;;;;;;;;;5119170;28;20284;-62
2022/05/17 03:27:12;;;;;;;0.60;0.60;;;;;;;;;;5115589;27;20288;-61
2022/05/17 03:29:59;;;;;;;0.60;0.60;;;;;;;;;;5121006;27;20373;-61
2022/05/17 03:32:46;;;;;;;0.60;0.60;;;;;;;;;;5115917;27;20276;-62
2022/05/17 03:35:35;;;;;;;0.70;0.70;;;;;;;;;;5119022;27;20665;-61
2022/05/17 03:38:22;;;;;;;0.50;0.50;;;;;;;;;;5115915;27;20281;-61
2022/05/17 03:41:09;;;;;;;0.60;0.60;;;;;;;;;;5118196;27;20571;-62
2022/05/17 03:43:56;;;;;;;0.70;0.70;;;;;;;;;;5117683;27;20700;-62
2022/05/17 03:46:43;;;;;;;0.47;0.47;;;;;;;;;;5113146;27;20231;-61
2022/05/17 03:49:30;;;;;;;0.40;0.40;;;;;;;;;;5119599;27;20584;-61
2022/05/17 03:52:19;;;;;;;0.67;0.67;;;;;;;;;;5118309;27;20294;-68
2022/05/17 03:55:08;;;;;;;0.63;0.57;;;;;;;;;;5111672;27;20347;-61
2022/05/17 03:57:55;;;;;;;0.50;0.50;;;;;;;;;;5114817;27;20225;-61
2022/05/17 04:00:42;;;;;;;0.60;0.60;;;;;;;;;;5121055;27;20670;-61
2022/05/17 04:03:29;;;;;;;0.63;0.63;;;;;;;;;;5119828;27;20255;-61
2022/05/17 04:06:16;;;;;;;0.60;0.60;;;;;;;;;;5112057;27;20206;-61
2022/05/17 04:09:05;;;;;;;0.67;0.60;;;;;;;;;;5113685;27;20244;-61
2022/05/17 04:11:52;;;;;;;0.57;0.57;;;;;;;;;;5116569;27;20206;-61
2022/05/17 04:14:39;;;;;;;0.70;0.70;;;;;;;;;;5111493;27;20284;-61
2022/05/17 04:17:26;;;;;;;0.50;0.50;;;;;;;;;;5112050;27;20274;-61
2022/05/17 04:20:14;;;;;;;0.70;0.70;;;;;;;;;;5119025;27;20719;-61
2022/05/17 04:23:01;;;;;;;0.60;0.60;;;;;;;;;;5115115;27;20897;-61
2022/05/17 04:25:49;;;;;;;0.50;0.50;;;;;;;;;;5114075;27;20331;-61
2022/05/17 04:28:37;;;;;;;0.80;0.80;;;;;;;;;;5115616;27;20253;-61
2022/05/17 04:31:24;;;;;;;0.70;0.70;;;;;;;;;;5115439;27;20726;-61
2022/05/17 04:34:10;;;;;;;0.63;0.63;;;;;;;;;;5119153;27;20703;-61
2022/05/17 04:36:57;;;;;;;0.67;0.60;;;;;;;;;;5121339;27;20201;-61
2022/05/17 04:39:44;;;;;;;0.50;0.50;;;;;;;;;;5118851;27;20197;-61
2022/05/17 04:42:32;;;;;;;0.40;0.40;;;;;;;;;;5116440;27;20635;-61
2022/05/17 04:45:19;;;;;;;0.50;0.50;;;;;;;;;;5115475;27;21222;-61
2022/05/17 04:48:07;;;;;;;0.90;0.70;;;;;;;;;;5110264;27;20292;-62
2022/05/17 04:50:54;;;;;;;0.57;0.57;;;;;;;;;;5117119;27;20283;-61
2022/05/17 04:53:43;;;;;;;0.67;0.67;;;;;;;;;;5122937;27;20234;-61
2022/05/17 04:56:30;;;;;;;0.77;0.77;;;;;;;;;;5111436;27;20207;-61
2022/05/17 04:59:19;;;;;;;0.70;0.70;;;;;;;;;;5114858;27;20211;-62
2022/05/17 05:02:07;;;;;;;0.80;0.80;;;;;;;;;;5111159;27;20250;-62
2022/05/17 05:04:54;;;;;;;0.70;0.70;;;;;;;;;;5120601;27;20339;-61
2022/05/17 05:07:41;;;;;;;0.70;0.70;;;;;;;;;;5116315;27;20343;-60
2022/05/17 05:10:28;;;;;;;0.63;0.63;;;;;;;;;;5115767;27;20813;-61
2022/05/17 05:13:15;;;;;;;0.70;0.70;;;;;;;;;;5110917;27;20204;-61
2022/05/17 05:16:09;;;;;;;0.43;0.43;;;;;;;;;;5113277;27;20294;-60
2022/05/17 05:18:56;;;;;;;1.50;0.70;;;;;;;;;;5114462;27;20337;-61
2022/05/17 05:21:43;;;;;;;0.60;0.60;;;;;;;;;;5114213;27;20206;-61
2022/05/17 05:24:31;;;;;;;0.60;0.60;;;;;;;;;;5117112;27;20203;-61
2022/05/17 05:27:18;;;;;;;0.80;0.80;;;;;;;;;;5114446;27;20230;-60
2022/05/17 05:30:07;;;;;;;0.70;0.70;;;;;;;;;;5109907;27;20294;-61
2022/05/17 05:32:56;;;;;;;1.63;0.83;;;;;;;;;;5114936;27;20841;-61
2022/05/17 05:35:43;;;;;;;0.60;0.60;;;;;;;;;;5117088;27;20215;-61
2022/05/17 05:38:30;;;;;;;1.27;0.50;;;;;;;;;;5110846;27;20209;-61
2022/05/17 05:41:17;;;;;;;0.63;0.60;;;;;;;;;;5114371;27;20216;-62
2022/05/17 05:44:04;;;;;;;0.60;0.60;;;;;;;;;;5118118;27;20283;-61
2022/05/17 05:46:51;;;;;;;0.50;0.50;;;;;;;;;;5109508;27;20293;-62
2022/05/17 05:49:40;;;;;;;0.55;0.55;;;;;;;;;;5111063;27;20252;-62
2022/05/17 05:52:27;;;;;;;0.65;0.65;;;;;;;;;;5113174;27;20244;-61
2022/05/17 05:55:22;;;;;;;0.50;0.50;;;;;;;;;;5114791;27;20257;-62
2022/05/17 05:58:10;;;;;;;0.60;0.57;;;;;;;;;;5115669;27;20209;-60
2022/05/17 06:00:57;;;;;;;0.50;0.50;;;;;;;;;;5113307;27;20195;-61
2022/05/17 06:03:44;;;;;;;0.32;0.32;;;;;;;;;;5115072;27;20283;-61
2022/05/17 06:06:33;;;;;;;0.40;0.40;;;;;;;;;;5110652;27;20251;-62
2022/05/17 06:09:19;;;;;;;0.50;0.50;;;;;;;;;;5111015;27;20200;-61
2022/05/17 06:12:07;;;;;;;0.50;0.50;;;;;;;;;;5115346;27;20288;-61
2022/05/17 06:14:54;;;;;;;0.57;0.57;;;;;;;;;;5112845;27;20333;-61
2022/05/17 06:17:41;;;;;;;0.97;0.50;;;;;;;;;;5113650;27;20689;-61
2022/05/17 06:20:28;;;;;;;0.50;0.50;;;;;;;;;;5108447;27;20236;-62
2022/05/17 06:23:17;;;;;;;0.35;0.35;;;;;;;;;;5107804;27;20245;-62
2022/05/17 06:26:05;;;;;;;0.68;0.68;;;;;;;;;;5113500;27;20211;-59
2022/05/17 06:28:51;;;;;;;0.70;0.60;;;;;;;;;;5112820;27;20202;-59
2022/05/17 06:31:38;;;;;;;0.70;0.70;;;;;;;;;;5113040;27;20217;-60
2022/05/17 06:34:25;;;;;;;0.40;0.40;;;;;;;;;;5113670;27;20207;-59
2022/05/17 06:37:13;;;;;;;0.60;0.60;;;;;;;;;;5111483;27;20324;-60
2022/05/17 06:40:01;;;;;;;0.57;0.57;;;;;;;;;;5109362;27;20244;-61
2022/05/17 06:42:48;;;;;;;0.40;0.40;;;;;;;;;;5106957;27;20325;-61
2022/05/17 06:45:35;;;;;;;0.50;0.50;;;;;;;;;;5111651;28;20313;-61
2022/05/17 06:48:22;;;;;;;0.40;0.40;;;;;;;;;;5106016;28;20205;-60
2022/05/17 06:51:09;;;;;;;0.60;0.60;;;;;;;;;;5109411;28;20317;-59
2022/05/17 06:53:56;;;;;;;0.60;0.30;;;;;;;;;;5115078;28;20328;-59
2022/05/17 06:56:44;;;;;;;1.00;0.50;;;;;;;;;;5109615;28;20638;-59
2022/05/17 06:59:32;;;;;;;0.50;0.50;;;;;;;;;;5114773;28;20213;-59
2022/05/17 07:02:19;;;;;;;0.30;0.30;;;;;;;;;;5118788;27;20318;-59
2022/05/17 07:05:08;;;;;;;0.30;0.30;;;;;;;;;;5118865;27;20224;-59
2022/05/17 07:08:00;;;;;;;0.50;0.50;;;;;;;;;;5118435;27;20201;-60
2022/05/17 07:13:54;;;;;;;0.50;0.50;;;;;;;;;;5119654;27;20708;-60
2022/05/17 07:16:41;;;;;;;0.30;0.30;;;;;;;;;;5116476;27;20228;-59
2022/05/17 07:19:32;;;;;;;0.40;0.40;;;;;;;;;;5117376;27;20298;-59
2022/05/17 07:22:19;;;;;;;0.30;0.30;;;;;;;;;;5117483;27;20338;-60
2022/05/17 07:25:06;;;;;;;0.55;0.55;;;;;;;;;;5117693;27;20261;-62
2022/05/17 07:27:53;;;;;;;0.40;0.40;;;;;;;;;;5121753;27;20212;-62
2022/05/17 07:30:42;;;;;;;0.40;0.40;;;;;;;;;;5114080;27;20324;-62
2022/05/17 07:33:29;;;;;;;0.60;0.60;;;;;;;;;;5116270;27;20574;-62
2022/05/17 07:36:16;;;;;;;0.50;0.50;;;;;;;;;;5118580;27;20246;-62
2022/05/17 07:39:03;;;;;;;0.40;0.40;;;;;;;;;;5122068;27;20288;-62
2022/05/17 07:41:52;;;;;;;0.40;0.40;;;;;;;;;;5113304;27;20216;-62
2022/05/17 07:44:39;;;;;;;0.50;0.50;;;;;;;;;;5118553;27;20244;-62
2022/05/17 07:47:29;;;;;;;0.47;0.47;;;;;;;;;;5119094;27;20690;-62
2022/05/17 07:50:16;;;;;;;0.40;0.40;;;;;;;;;;5116204;27;20211;-62
2022/05/17 07:53:07;;;;;;;0.30;0.30;;;;;;;;;;5116155;27;20701;-62
2022/05/17 07:55:54;;;;;;;0.50;0.50;;;;;;;;;;5115637;27;20233;-62
2022/05/17 07:58:42;;;;;;;0.40;0.40;;;;;;;;;;5116693;27;20266;-62
2022/05/17 08:01:28;;;;;;;0.50;0.50;;;;;;;;;;5116975;27;20606;-62
2022/05/17 08:04:17;;;;;;;0.47;0.40;;;;;;;;;;5114491;27;20285;-62
2022/05/17 08:07:04;;;;;;;0.47;0.43;;;;;;;;;;5119488;27;20205;-62
2022/05/17 08:09:51;;;;;;;0.32;0.30;;;;;;;;;;5114200;27;20749;-62
2022/05/17 08:12:38;;;;;;;0.30;0.30;;;;;;;;;;5116835;27;20706;-62
2022/05/17 08:15:27;;;;;;;0.47;0.35;;;;;;;;;;5115764;27;20213;-62
2022/05/17 08:18:14;;;;;;;0.32;0.32;;;;;;;;;;5117984;27;20288;-60
2022/05/17 08:21:02;;;;;;;0.52;0.52;;;;;;;;;;5118980;27;20282;-60
2022/05/17 08:23:49;;;;;;;0.30;0.30;;;;;;;;;;5113400;27;20226;-63
2022/05/17 08:29:41;;;;;;;0.30;0.30;;;;;;;;;;5115542;27;20240;-59
2022/05/17 08:35:37;;;;;;;0.30;0.30;;;;;;;;;;5113307;27;20309;-58
2022/05/17 08:38:28;;;;;;;0.40;0.40;;;;;;;;;;5114532;27;20314;-59
2022/05/17 08:41:23;;;;;;;0.40;0.40;;;;;;;;;;5117912;27;20205;-59
2022/05/17 08:44:13;;;;;;;0.40;0.40;;;;;;;;;;5118128;27;20291;-59
2022/05/17 08:47:06;;;;;;;0.47;0.47;;;;;;;;;;5114698;27;20218;-58
2022/05/17 08:49:57;;;;;;;0.85;0.50;;;;;;;;;;5116816;27;20238;-58
2022/05/17 08:52:44;;;;;;;0.40;0.40;;;;;;;;;;5118541;27;20230;-59
2022/05/17 08:55:36;;;;;;;0.95;0.40;;;;;;;;;;5116083;27;20204;-58
2022/05/17 08:58:27;;;;;;;0.50;0.50;;;;;;;;;;5117197;27;20250;-59
2022/05/17 09:01:20;;;;;;;0.40;0.40;;;;;;;;;;5110822;27;20254;-59
2022/05/17 09:04:21;;;;;;;0.40;0.40;;;;;;;;;;5115105;27;20197;-59
2022/05/17 09:07:17;;;;;;;0.57;0.40;;;;;;;;;;5116287;27;20208;-59
2022/05/17 09:10:08;;;;;;;0.50;0.50;;;;;;;;;;5113173;27;20261;-58
2022/05/17 09:13:03;;;;;;;0.47;0.47;;;;;;;;;;5114527;27;20682;-61
2022/05/17 09:15:51;;;;;;;1.00;0.40;;;;;;;;;;5113169;27;20220;-61
2022/05/17 09:18:40;;;;;;;0.52;0.50;;;;;;;;;;5118895;27;20354;-61
2022/05/17 09:21:30;;;;;;;0.63;0.35;;;;;;;;;;5116552;27;20562;-61
2022/05/17 09:24:19;;;;;;;0.63;0.63;;;;;;;;;;5114744;27;20289;-62
2022/05/17 09:27:09;;;;;;;0.40;0.40;;;;;;;;;;5118023;27;20235;-61
2022/05/17 09:30:06;;;;;;;0.40;0.40;;;;;;;;;;5111904;27;20259;-61
2022/05/17 09:33:04;;;;;;;0.65;0.60;;;;;;;;;;5115598;27;20279;-61
2022/05/17 09:35:57;;;;;;;0.40;0.40;;;;;;;;;;5117309;27;20247;-62
2022/05/17 09:38:44;;;;;;;0.30;0.30;;;;;;;;;;5114473;27;20220;-61
2022/05/17 09:41:35;;;;;;;0.60;0.60;;;;;;;;;;5115373;27;20329;-61
2022/05/17 09:44:25;;;;;;;0.50;0.50;;;;;;;;;;5110074;27;20202;-61
2022/05/17 09:47:25;;;;;;;0.50;0.50;;;;;;;;;;5112017;27;20295;-60
2022/05/17 09:53:21;;;;;;;0.30;0.30;;;;;;;;;;5116964;27;20582;-62
2022/05/17 09:56:09;;;;;;;0.30;0.30;;;;;;;;;;5111480;27;20205;-61
2022/05/17 09:58:58;;;;;;;0.35;0.35;;;;;;;;;;5113478;27;20217;-61
2022/05/17 10:01:45;;;;;;;0.52;0.52;;;;;;;;;;5115215;27;20266;-61
2022/05/17 10:04:33;;;;;;;0.60;0.40;;;;;;;;;;5117791;27;20231;-61
2022/05/17 10:07:22;;;;;;;0.50;0.50;;;;;;;;;;5115505;27;20214;-60
2022/05/17 10:10:10;;;;;;;0.40;0.40;;;;;;;;;;5114304;27;20208;-61
2022/05/17 10:13:04;;;;;;;0.77;0.50;;;;;;;;;;5110247;27;20229;-61
2022/05/17 10:15:54;;;;;;;0.40;0.40;;;;;;;;;;5113584;27;20235;-61
2022/05/17 10:18:46;;;;;;;0.50;0.50;;;;;;;;;;5113394;27;20927;-61
2022/05/17 10:21:42;;;;;;;0.40;0.40;;;;;;;;;;5116981;27;20738;-61
2022/05/17 10:24:36;;;;;;;1.05;0.45;;;;;;;;;;5116744;27;20688;-61
2022/05/17 10:27:28;;;;;;;0.50;0.50;;;;;;;;;;5113692;27;20201;-62
2022/05/17 10:30:18;;;;;;;0.60;0.60;;;;;;;;;;5114806;27;20212;-62
2022/05/17 10:33:07;;;;;;;0.30;0.30;;;;;;;;;;5115243;27;20227;-61
2022/05/17 10:36:00;;;;;;;0.73;0.73;;;;;;;;;;5115592;27;20202;-62
2022/05/17 10:39:00;;;;;;;0.52;0.52;;;;;;;;;;5113946;27;20336;-61
2022/05/17 10:41:47;;;;;;;0.95;0.50;;;;;;;;;;5113884;27;20212;-60
2022/05/17 10:44:39;;;;;;;0.43;0.43;;;;;;;;;;5107816;28;20320;-62
2022/05/17 10:47:47;;;;;;;0.40;0.40;;;;;;;;;;5116328;27;20213;-61
2022/05/17 10:50:37;;;;;;;0.80;0.47;;;;;;;;;;5114848;28;20726;-61
2022/05/17 10:53:39;;;;;;;1.50;0.55;;;;;;;;;;5119864;28;20224;-62
2022/05/17 10:56:35;;;;;;;0.40;0.40;;;;;;;;;;5118217;28;20289;-62
2022/05/17 10:59:30;;;;;;;0.70;0.70;;;;;;;;;;5117998;28;20205;-61
2022/05/17 11:02:32;;;;;;;0.50;0.50;;;;;;;;;;5117807;28;20255;-59
2022/05/17 11:05:28;;;;;;;0.50;0.50;;;;;;;;;;5115642;28;20236;-61
2022/05/17 11:08:22;;;;;;;0.57;0.57;;;;;;;;;;5116531;28;20206;-61
2022/05/17 11:11:24;;;;;;;0.75;0.50;;;;;;;;;;5112690;28;20777;-61
2022/05/17 11:14:22;;;;;;;0.50;0.50;;;;;;;;;;5115722;28;20319;-61
2022/05/17 11:17:19;;;;;;;0.77;0.70;;;;;;;;;;5114877;28;20235;-61
2022/05/17 11:20:14;;;;;;;0.35;0.35;;;;;;;;;;5118675;28;20208;-60
2022/05/17 11:23:20;;;;;;;0.70;0.65;;;;;;;;;;5111295;28;20217;-61
2022/05/17 11:26:37;;;;;;;0.30;0.30;;;;;;;;;;5112735;28;20646;-60
2022/05/17 11:29:49;;;;;;;0.40;0.40;;;;;;;;;;5112361;28;20203;-61
2022/05/17 11:32:38;;;;;;;0.80;0.40;;;;;;;;;;5110656;28;20606;-61
2022/05/17 11:35:38;;;;;;;0.80;0.80;;;;;;;;;;5115772;28;20578;-61
2022/05/17 11:38:49;;;;;;;0.40;0.40;;;;;;;;;;5110801;28;20236;-60
2022/05/17 11:41:44;;;;;;;0.52;0.52;;;;;;;;;;5111802;28;20284;-61
2022/05/17 11:44:44;;;;;;;0.50;0.50;;;;;;;;;;5109142;28;20680;-60
2022/05/17 11:47:34;;;;;;;0.70;0.43;;;;;;;;;;5083657;28;20209;-60
2022/05/17 11:50:38;;;;;;;0.70;0.70;;;;;;;;;;5079241;28;20321;-60
2022/05/17 11:53:40;;;;;;;0.40;0.40;;;;;;;;;;5077302;28;20271;-60
2022/05/17 11:56:35;;;;;;;0.55;0.55;;;;;;;;;;5078497;28;20754;-61
2022/05/17 11:59:53;;;;;;;2.13;0.75;;;;;;;;;;5083439;28;20325;-60
2022/05/17 12:02:43;;;;;;;0.50;0.50;;;;;;;;;;5083280;28;20204;-59
2022/05/17 12:05:57;;;;;;;0.50;0.50;;;;;;;;;;5080366;28;20205;-61
2022/05/17 12:08:44;;;;;;;0.40;0.40;;;;;;;;;;5090400;28;20300;-59
2022/05/17 12:11:42;;;;;;;0.28;0.28;;;;;;;;;;5085898;28;20206;-61
2022/05/17 12:14:41;;;;;;;0.40;0.40;;;;;;;;;;5085017;28;20238;-61
2022/05/17 12:17:36;;;;;;;0.47;0.47;;;;;;;;;;5079857;28;20206;-61
2022/05/17 12:20:30;;;;;;;0.40;0.40;;;;;;;;;;5084671;28;20258;-62
2022/05/17 12:23:23;;;;;;;0.50;0.50;;;;;;;;;;5078393;28;20203;-61
2022/05/17 12:26:16;;;;;;;0.60;0.60;;;;;;;;;;5078533;28;20213;-61
2022/05/17 12:32:10;;;;;;;0.60;0.60;;;;;;;;;;5074329;28;20223;-62
2022/05/17 12:34:58;;;;;;;0.38;0.38;;;;;;;;;;5076344;28;20272;-61
2022/05/17 12:37:45;;;;;;;0.50;0.50;;;;;;;;;;5071848;28;20210;-62
2022/05/17 12:43:39;;;;;;;1.38;0.52;;;;;;;;;;5086061;28;20535;-61
2022/05/17 12:46:31;;;;;;;0.40;0.40;;;;;;;;;;5117001;27;20294;-61
2022/05/17 12:49:20;;;;;;;0.50;0.50;;;;;;;;;;5116992;27;20288;-61
2022/05/17 12:52:15;;;;;;;0.60;0.60;;;;;;;;;;5117910;27;20731;-62
2022/05/17 12:55:05;;;;;;;0.50;0.50;;;;;;;;;;5117493;27;20210;-61
2022/05/17 12:57:53;;;;;;;0.57;0.57;;;;;;;;;;5113496;27;20346;-61
2022/05/17 13:00:40;;;;;;;0.57;0.57;;;;;;;;;;5122809;27;20257;-61
2022/05/17 13:03:29;;;;;;;0.43;0.43;;;;;;;;;;5114740;27;20624;-61
2022/05/17 13:06:16;;;;;;;0.55;0.55;;;;;;;;;;5115256;27;20573;-62
2022/05/17 13:09:06;;;;;;;0.60;0.60;;;;;;;;;;5124744;27;20248;-61
2022/05/17 13:11:56;;;;;;;0.60;0.60;;;;;;;;;;5115469;27;20233;-61
2022/05/17 13:14:43;;;;;;;0.45;0.45;;;;;;;;;;5115498;27;20216;-60
2022/05/17 13:17:33;;;;;;;0.57;0.50;;;;;;;;;;5119690;27;20880;-62
2022/05/17 13:20:23;;;;;;;1.13;0.40;;;;;;;;;;5120332;27;20200;-61
2022/05/17 13:23:11;;;;;;;0.32;0.32;;;;;;;;;;5120542;27;20270;-63
2022/05/17 13:26:02;;;;;;;0.50;0.50;;;;;;;;;;5119416;27;20309;-61
2022/05/17 13:28:49;;;;;;;0.77;0.60;;;;;;;;;;5117541;27;20207;-60
2022/05/17 13:31:37;;;;;;;0.50;0.50;;;;;;;;;;5114634;27;20283;-62
2022/05/17 13:34:29;;;;;;;0.60;0.60;;;;;;;;;;5112608;27;20712;-61
2022/05/17 13:37:18;;;;;;;0.57;0.57;;;;;;;;;;5111138;27;20688;-61
2022/05/17 13:40:06;;;;;;;0.40;0.40;;;;;;;;;;5110344;27;20681;-62
2022/05/17 13:42:54;;;;;;;0.47;0.47;;;;;;;;;;5114124;27;20679;-60
2022/05/17 13:45:41;;;;;;;1.23;0.50;;;;;;;;;;5113936;27;20234;-61
2022/05/17 13:48:29;;;;;;;0.70;0.70;;;;;;;;;;5116099;27;20216;-61
2022/05/17 13:51:21;;;;;;;0.60;0.60;;;;;;;;;;5111646;27;20758;-61
2022/05/17 13:54:14;;;;;;;0.63;0.40;;;;;;;;;;5112193;27;20780;-61
2022/05/17 13:57:10;;;;;;;0.40;0.40;;;;;;;;;;5117227;27;20324;-61
2022/05/17 14:00:01;;;;;;;0.37;0.37;;;;;;;;;;5120532;27;20350;-60
2022/05/17 14:02:57;;;;;;;0.47;0.47;;;;;;;;;;5111520;27;20717;-61
2022/05/17 14:05:55;;;;;;;0.70;0.70;;;;;;;;;;5117656;27;20204;-61
2022/05/17 14:11:59;;;;;;;0.50;0.43;;;;;;;;;;5077684;27;20557;-61
2022/05/17 14:14:47;;;;;;;0.43;0.40;;;;;;;;;;5108900;27;20679;-61
2022/05/17 14:17:36;;;;;;;0.67;0.67;;;;;;;;;;5114822;27;20234;-62
2022/05/17 14:20:23;;;;;;;0.60;0.60;;;;;;;;;;5115330;27;20219;-62
2022/05/17 14:23:10;;;;;;;0.60;0.60;;;;;;;;;;5118103;27;20300;-60
2022/05/17 14:25:57;;;;;;;0.40;0.40;;;;;;;;;;5111337;27;20294;-61
2022/05/17 14:28:44;;;;;;;0.77;0.60;;;;;;;;;;5119340;27;20336;-62
2022/05/17 14:31:39;;;;;;;0.60;0.60;;;;;;;;;;5117522;27;20424;-61
2022/05/17 14:34:28;;;;;;;0.40;0.40;;;;;;;;;;5114536;27;20699;-61
2022/05/17 14:37:15;;;;;;;0.40;0.40;;;;;;;;;;5118253;27;20248;-62
2022/05/17 14:40:02;;;;;;;0.50;0.50;;;;;;;;;;5117644;27;20216;-61
2022/05/17 14:42:50;;;;;;;0.30;0.30;;;;;;;;;;5123115;27;20757;-60
2022/05/17 14:45:37;;;;;;;0.50;0.50;;;;;;;;;;5115368;27;20242;-61
2022/05/17 14:48:27;;;;;;;0.93;0.40;;;;;;;;;;5118803;27;20307;-61
2022/05/17 14:51:19;;;;;;;0.50;0.50;;;;;;;;;;5108836;27;20212;-61
2022/05/17 14:54:06;;;;;;;0.73;0.50;;;;;;;;;;5111019;28;20226;-62
2022/05/17 14:56:53;;;;;;;0.87;0.67;;;;;;;;;;5115398;28;20570;-61
2022/05/17 14:59:40;;;;;;;0.60;0.60;;;;;;;;;;5112951;28;20252;-60
2022/05/17 15:02:27;;;;;;;0.47;0.47;;;;;;;;;;5115103;28;20340;-61
2022/05/17 15:05:15;;;;;;;0.50;0.50;;;;;;;;;;5115447;28;20279;-60
2022/05/17 15:08:04;;;;;;;0.50;0.50;;;;;;;;;;5112733;28;20202;-61
2022/05/17 15:10:52;;;;;;;0.67;0.57;;;;;;;;;;5117181;28;20235;-62
2022/05/17 15:13:41;;;;;;;0.40;0.40;;;;;;;;;;5119506;28;20234;-62
2022/05/17 15:16:28;;;;;;;1.17;0.60;;;;;;;;;;5111678;28;20211;-62
2022/05/17 15:19:17;;;;;;;0.40;0.40;;;;;;;;;;5109749;28;20214;-61
2022/05/17 15:22:07;;;;;;;0.63;0.63;;;;;;;;;;5111707;28;20284;-61
2022/05/17 15:24:56;;;;;;;0.40;0.40;;;;;;;;;;5117448;27;20201;-61
2022/05/17 15:27:44;;;;;;;0.60;0.60;;;;;;;;;;5116945;27;20206;-61
2022/05/17 15:30:32;;;;;;;0.60;0.60;;;;;;;;;;5119065;27;20210;-62
2022/05/17 15:33:20;;;;;;;0.50;0.50;;;;;;;;;;5117277;27;20527;-62
2022/05/17 15:36:07;;;;;;;0.50;0.50;;;;;;;;;;5118851;27;20289;-62
2022/05/17 15:38:54;;;;;;;2.27;0.50;;;;;;;;;;5114373;27;20225;-61
2022/05/17 15:41:43;;;;;;;0.43;0.43;;;;;;;;;;5122187;27;20201;-61
2022/05/17 15:44:30;;;;;;;0.50;0.50;;;;;;;;;;5119453;27;20254;-61
2022/05/17 15:53:36;;;;;;;0.63;0.63;;;;;;;;;;5118797;27;20243;-61
2022/05/17 15:56:23;;;;;;;0.47;0.47;;;;;;;;;;5120414;27;20204;-61
2022/05/17 15:59:11;;;;;;;0.87;0.87;;;;;;;;;;5115921;27;20283;-61
2022/05/17 16:01:58;;;;;;;2.87;0.50;;;;;;;;;;5112729;27;20278;-61
2022/05/17 16:04:58;;;;;;;1.13;0.73;;;;;;;;;;5114168;27;20691;-61
2022/05/17 16:08:04;;;;;;;1.13;0.40;;;;;;;;;;5115038;27;20208;-60
2022/05/17 16:10:51;;;;;;;0.60;0.60;;;;;;;;;;5113581;27;20202;-60
2022/05/17 16:13:38;;;;;;;0.93;0.63;;;;;;;;;;5120767;27;20758;-61
2022/05/17 16:16:27;;;;;;;0.40;0.40;;;;;;;;;;5119260;27;20578;-61
2022/05/17 16:19:21;;;;;;;0.50;0.50;;;;;;;;;;5117122;27;20619;-59
2022/05/17 16:22:09;;;;;;;0.50;0.50;;;;;;;;;;5117221;27;20280;-60
2022/05/17 16:24:56;;;;;;;0.40;0.40;;;;;;;;;;5117161;27;20207;-60
2022/05/17 16:27:44;;;;;;;0.40;0.40;;;;;;;;;;5114166;27;20280;-55
2022/05/17 16:30:33;;;;;;;0.60;0.60;;;;;;;;;;5113254;27;20219;-55
2022/05/17 16:33:22;;;;;;;0.60;0.60;;;;;;;;;;5111449;27;20260;-56
2022/05/17 16:36:09;;;;;;;0.67;0.60;;;;;;;;;;5111886;27;20233;-56
2022/05/17 16:38:58;;;;;;;1.03;0.33;;;;;;;;;;5113073;27;20292;-55
2022/05/17 16:41:45;;;;;;;0.57;0.57;;;;;;;;;;5121260;27;20218;-56
2022/05/17 16:44:32;;;;;;;0.50;0.50;;;;;;;;;;5117911;27;20315;-55
2022/05/17 16:47:19;;;;;;;0.50;0.50;;;;;;;;;;5116250;27;20245;-55
2022/05/17 16:50:24;;;;;;;0.50;0.50;;;;;;;;;;5119697;27;20331;-56
2022/05/17 16:53:13;;;;;;;0.67;0.63;;;;;;;;;;5121052;27;20217;-56
2022/05/17 16:55:59;;;;;;;0.70;0.70;;;;;;;;;;5119935;27;20274;-56
2022/05/17 16:58:46;;;;;;;0.50;0.50;;;;;;;;;;5113759;27;20294;-56
2022/05/17 17:01:34;;;;;;;0.60;0.60;;;;;;;;;;5113450;27;20338;-56
2022/05/17 17:04:23;;;;;;;0.33;0.33;;;;;;;;;;5120309;27;20202;-56
2022/05/17 17:07:11;;;;;;;0.47;0.40;;;;;;;;;;5113692;27;20566;-55
2022/05/17 17:09:58;;;;;;;0.60;0.60;;;;;;;;;;5117851;27;20287;-56
2022/05/17 17:12:45;;;;;;;0.60;0.60;;;;;;;;;;5118497;27;20242;-56
2022/05/17 17:15:33;;;;;;;0.30;0.30;;;;;;;;;;5116979;27;20290;-56
2022/05/17 17:18:21;;;;;;;0.50;0.50;;;;;;;;;;5117365;27;20965;-55
2022/05/17 17:21:08;;;;;;;0.70;0.70;;;;;;;;;;5119417;27;20243;-56
2022/05/17 17:23:57;;;;;;;0.50;0.50;;;;;;;;;;5119045;27;20211;-56
2022/05/17 17:26:44;;;;;;;0.60;0.57;;;;;;;;;;5122068;27;20268;-55
2022/05/17 17:29:32;;;;;;;0.50;0.50;;;;;;;;;;5118473;27;20234;-55